createdAt,value
2022-08-03T00:02:20.600Z,75.96
2022-08-03T00:04:48.103Z,75.98
2022-08-03T00:07:15.661Z,77.03
2022-08-03T00:09:43.122Z,78.62
2022-08-03T00:12:10.576Z,78.94
2022-08-03T00:14:37.853Z,77.44
2022-08-03T00:17:05.188Z,75.82
2022-08-03T00:19:32.480Z,75.85
2022-08-03T00:21:59.893Z,76.70
2022-08-03T00:24:27.252Z,77.44
2022-08-03T00:26:57.163Z,78.28
2022-08-03T00:29:24.421Z,78.09
2022-08-03T00:31:59.575Z,76.98
2022-08-03T00:34:35.231Z,77.35
2022-08-03T00:37:04.116Z,78.32
2022-08-03T00:39:31.548Z,79.72
2022-08-03T00:42:03.537Z,80.20
2022-08-03T00:44:30.881Z,78.86
2022-08-03T00:46:59.297Z,77.45
2022-08-03T00:49:28.434Z,77.55
2022-08-03T00:51:57.011Z,78.26
2022-08-03T00:54:24.286Z,79.05
2022-08-03T00:56:59.762Z,80.26
2022-08-03T00:59:28.222Z,78.80
2022-08-03T01:01:55.454Z,77.37
2022-08-03T01:04:23.016Z,77.67
2022-08-03T01:07:03.412Z,78.84
2022-08-03T01:10:00.215Z,79.89
2022-08-03T01:13:01.680Z,79.78
2022-08-03T01:15:32.087Z,78.19
2022-08-03T01:18:04.061Z,78.05
2022-08-03T01:20:34.181Z,78.55
2022-08-03T01:23:05.300Z,79.47
2022-08-03T01:25:54.563Z,78.64
2022-08-03T01:28:59.231Z,77.04
2022-08-03T01:31:29.298Z,77.43
2022-08-03T01:33:59.768Z,78.01
2022-08-03T01:36:30.638Z,78.75
2022-08-03T01:39:01.662Z,77.83
2022-08-03T01:41:43.339Z,76.44
2022-08-03T01:44:30.250Z,77.10
2022-08-03T01:47:02.007Z,77.81
2022-08-03T01:49:30.953Z,78.75
2022-08-03T01:52:04.165Z,79.37
2022-08-03T01:54:40.776Z,77.89
2022-08-03T01:57:08.014Z,76.42
2022-08-03T01:59:35.981Z,76.64
2022-08-03T02:02:29.892Z,77.51
2022-08-03T02:04:53.423Z,78.79
2022-08-03T02:07:26.638Z,79.75
2022-08-03T02:09:54.175Z,78.37
2022-08-03T02:12:22.963Z,76.37
2022-08-03T02:14:50.330Z,76.00
2022-08-03T02:17:17.676Z,76.38
2022-08-03T02:19:45.136Z,77.56
2022-08-03T02:22:13.473Z,79.35
2022-08-03T02:24:41.271Z,78.82
2022-08-03T02:27:18.484Z,78.17
2022-08-03T02:29:48.866Z,78.35
2022-08-03T02:32:18.234Z,78.68
2022-08-03T02:34:47.892Z,79.45
2022-08-03T02:37:15.355Z,81.46
2022-08-03T02:39:43.421Z,80.41
2022-08-03T02:42:12.215Z,78.77
2022-08-03T02:44:40.487Z,78.49
2022-08-03T02:47:09.809Z,79.24
2022-08-03T02:49:50.405Z,79.99
2022-08-03T02:52:23.397Z,79.28
2022-08-03T02:54:53.159Z,78.16
2022-08-03T02:57:20.922Z,78.12
2022-08-03T02:59:48.274Z,78.98
2022-08-03T03:02:17.237Z,80.45
2022-08-03T03:05:52.905Z,81.93
2022-08-03T03:07:50.477Z,80.24
2022-08-03T03:10:22.400Z,79.72
2022-08-03T03:12:52.555Z,80.52
2022-08-03T03:15:20.013Z,81.63
2022-08-03T03:17:49.112Z,82.18
2022-08-03T03:20:16.422Z,80.61
2022-08-03T03:22:59.284Z,79.27
2022-08-03T03:25:26.742Z,79.02
2022-08-03T03:27:54.808Z,79.50
2022-08-03T03:30:22.162Z,80.59
2022-08-03T03:32:50.705Z,81.14
2022-08-03T03:35:19.745Z,79.21
2022-08-03T03:37:47.125Z,78.92
2022-08-03T03:40:14.760Z,79.14
2022-08-03T03:42:42.208Z,80.40
2022-08-03T03:45:10.383Z,81.04
2022-08-03T03:47:39.688Z,79.26
2022-08-03T03:50:07.964Z,76.96
2022-08-03T03:52:35.320Z,76.40
2022-08-03T03:55:02.718Z,77.11
2022-08-03T03:57:30.127Z,77.84
2022-08-03T03:59:57.379Z,78.67
2022-08-03T04:02:25.984Z,77.53
2022-08-03T04:05:12.019Z,75.52
2022-08-03T04:08:30.919Z,75.78
2022-08-03T04:11:13.839Z,77.27
2022-08-03T04:14:01.768Z,77.80
2022-08-03T04:16:31.651Z,78.61
2022-08-03T04:19:06.724Z,77.09
2022-08-03T04:21:34.080Z,75.67
2022-08-03T04:24:02.929Z,75.53
2022-08-03T04:26:34.999Z,76.25
2022-08-03T04:29:02.492Z,77.07
2022-08-03T04:31:29.958Z,78.31
2022-08-03T04:33:57.516Z,77.30
2022-08-03T04:36:27.531Z,75.65
2022-08-03T04:38:59.800Z,75.58
2022-08-03T04:41:27.401Z,76.34
2022-08-03T04:43:59.132Z,77.42
2022-08-03T04:46:27.702Z,78.21
2022-08-03T04:48:56.170Z,77.42
2022-08-03T04:51:23.636Z,76.04
2022-08-03T04:53:50.886Z,75.81
2022-08-03T04:56:18.567Z,76.54
2022-08-03T04:58:46.013Z,77.29
2022-08-03T05:01:13.421Z,77.81
2022-08-03T05:03:40.923Z,76.74
2022-08-03T05:06:11.062Z,75.30
2022-08-03T05:08:46.244Z,75.06
2022-08-03T05:11:16.945Z,75.62
2022-08-03T05:13:45.288Z,76.38
2022-08-03T05:16:14.101Z,76.75
2022-08-03T05:18:44.930Z,76.21
2022-08-03T05:21:15.030Z,74.20
2022-08-03T05:23:42.388Z,73.68
2022-08-03T05:26:12.116Z,74.47
2022-08-03T05:28:39.863Z,75.45
2022-08-03T05:31:21.210Z,76.11
2022-08-03T05:33:49.669Z,75.85
2022-08-03T05:36:17.100Z,74.15
2022-08-03T05:38:44.437Z,73.20
2022-08-03T05:41:22.197Z,73.13
2022-08-03T05:43:54.700Z,74.21
2022-08-03T05:46:23.102Z,74.77
2022-08-03T05:48:50.446Z,75.31
2022-08-03T05:51:17.809Z,74.94
2022-08-03T05:53:45.462Z,73.54
2022-08-03T05:56:16.015Z,73.60
2022-08-03T05:58:53.869Z,74.04
2022-08-03T06:01:24.291Z,74.71
2022-08-03T06:03:52.497Z,75.71
2022-08-03T06:06:19.760Z,74.28
2022-08-03T06:08:47.098Z,73.05
2022-08-03T06:11:14.595Z,73.77
2022-08-03T06:13:43.532Z,75.04
2022-08-03T06:16:10.911Z,75.58
2022-08-03T06:18:38.974Z,75.85
2022-08-03T06:21:13.966Z,76.05
2022-08-03T06:23:54.725Z,73.85
2022-08-03T06:26:26.895Z,73.51
2022-08-03T06:28:55.377Z,73.65
2022-08-03T06:31:33.210Z,74.17
2022-08-03T06:34:31.186Z,75.30
2022-08-03T06:36:52.573Z,75.69
2022-08-03T06:39:20.381Z,75.71
2022-08-03T06:41:47.631Z,73.42
2022-08-03T06:44:16.398Z,73.14
2022-08-03T06:46:46.339Z,73.70
2022-08-03T06:49:14.004Z,74.57
2022-08-03T06:52:06.018Z,74.71
2022-08-03T06:54:32.570Z,74.12
2022-08-03T06:57:00.439Z,72.43
2022-08-03T07:00:08.545Z,71.45
2022-08-03T07:02:19.003Z,71.33
2022-08-03T07:04:48.609Z,71.59
2022-08-03T07:07:16.071Z,71.85
2022-08-03T07:09:57.611Z,71.87
2022-08-03T07:12:26.728Z,71.67
2022-08-03T07:14:58.187Z,69.76
2022-08-03T07:17:28.222Z,68.78
2022-08-03T07:19:55.469Z,68.28
2022-08-03T07:22:22.766Z,68.90
2022-08-03T07:24:50.286Z,69.17
2022-08-03T07:27:17.540Z,69.39
2022-08-03T07:29:44.812Z,70.18
2022-08-03T07:32:12.140Z,70.16
2022-08-03T07:34:39.604Z,70.21
2022-08-03T07:37:06.855Z,68.45
2022-08-03T07:39:36.669Z,66.16
2022-08-03T07:42:04.636Z,66.37
2022-08-03T07:44:31.889Z,66.79
2022-08-03T07:46:59.240Z,66.87
2022-08-03T07:49:31.061Z,67.10
2022-08-03T07:52:17.292Z,66.88
2022-08-03T07:54:44.964Z,66.68
2022-08-03T07:57:12.277Z,67.37
2022-08-03T07:59:56.879Z,67.03
2022-08-03T08:02:27.541Z,66.98
2022-08-03T08:04:55.572Z,66.92
2022-08-03T08:07:23.645Z,65.94
2022-08-03T08:09:53.152Z,66.15
2022-08-03T08:12:20.684Z,66.27
2022-08-03T08:14:48.268Z,66.40
2022-08-03T08:17:15.529Z,66.34
2022-08-03T08:19:51.426Z,66.01
2022-08-03T08:22:29.947Z,66.04
2022-08-03T08:25:01.036Z,66.04
2022-08-03T08:27:29.014Z,65.16
2022-08-03T08:30:19.549Z,64.82
2022-08-03T08:32:47.692Z,63.94
2022-08-03T08:35:15.132Z,63.33
2022-08-03T08:37:43.654Z,63.71
2022-08-03T08:40:20.997Z,63.25
2022-08-03T08:42:58.008Z,63.70
2022-08-03T08:45:26.855Z,62.85
2022-08-03T08:47:59.638Z,63.65
2022-08-03T08:50:28.548Z,62.50
2022-08-03T08:52:56.318Z,62.64
2022-08-03T08:55:24.026Z,62.43
2022-08-03T08:57:54.094Z,63.46
2022-08-03T09:00:21.960Z,64.03
2022-08-03T09:02:49.320Z,62.90
2022-08-03T09:05:18.432Z,62.14
2022-08-03T09:07:46.674Z,62.67
2022-08-03T09:10:14.986Z,62.39
2022-08-03T09:12:43.319Z,61.59
2022-08-03T09:15:33.025Z,61.58
2022-08-03T09:18:01.487Z,59.78
2022-08-03T09:20:34.182Z,59.47
2022-08-03T09:23:19.165Z,59.88
2022-08-03T09:25:51.832Z,57.76
2022-08-03T09:28:59.736Z,57.98
2022-08-03T09:31:06.711Z,57.57
2022-08-03T09:33:36.164Z,58.42
2022-08-03T09:36:03.884Z,59.37
2022-08-03T09:38:31.334Z,60.01
2022-08-03T09:41:00.644Z,60.46
2022-08-03T09:43:29.065Z,61.25
2022-08-03T09:46:04.842Z,62.03
2022-08-03T09:48:33.641Z,62.03
2022-08-03T09:51:14.207Z,62.35
2022-08-03T09:53:57.114Z,62.56
2022-08-03T09:56:44.234Z,63.09
2022-08-03T09:59:12.334Z,62.99
2022-08-03T10:01:42.122Z,62.69
2022-08-03T10:04:15.237Z,62.98
2022-08-03T10:06:43.815Z,63.34
2022-08-03T10:09:16.187Z,62.88
2022-08-03T10:11:44.421Z,62.18
2022-08-03T10:14:19.585Z,62.61
2022-08-03T10:16:47.787Z,61.66
2022-08-03T10:19:15.987Z,61.60
2022-08-03T10:21:58.357Z,61.13
2022-08-03T10:24:27.670Z,61.68
2022-08-03T10:27:03.221Z,61.74
2022-08-03T10:29:30.461Z,61.43
2022-08-03T10:31:59.157Z,61.37
2022-08-03T10:34:27.828Z,62.49
2022-08-03T10:36:57.744Z,62.59
2022-08-03T10:39:29.744Z,62.32
2022-08-03T10:41:59.968Z,62.27
2022-08-03T10:44:34.245Z,61.09
2022-08-03T10:47:02.161Z,60.78
2022-08-03T10:49:34.347Z,61.03
2022-08-03T10:52:12.924Z,61.47
2022-08-03T10:55:07.819Z,61.34
2022-08-03T10:57:52.550Z,60.81
2022-08-03T11:00:27.735Z,60.40
2022-08-03T11:03:01.803Z,59.92
2022-08-03T11:05:32.548Z,59.72
2022-08-03T11:08:20.246Z,59.96
2022-08-03T11:10:48.452Z,59.78
2022-08-03T11:13:17.351Z,59.90
2022-08-03T11:15:47.653Z,59.75
2022-08-03T11:18:16.255Z,59.89
2022-08-03T11:20:59.601Z,59.87
2022-08-03T11:24:04.661Z,59.00
2022-08-03T11:26:34.666Z,59.30
2022-08-03T11:29:28.722Z,57.27
2022-08-03T11:31:56.696Z,57.30
2022-08-03T11:34:24.999Z,57.40
2022-08-03T11:37:23.179Z,57.04
2022-08-03T11:39:53.359Z,56.96
2022-08-03T11:42:25.047Z,56.00
2022-08-03T11:45:01.591Z,55.87
2022-08-03T11:47:29.805Z,55.60
2022-08-03T11:50:00.587Z,54.66
2022-08-03T11:52:28.992Z,54.57
2022-08-03T11:54:57.522Z,54.20
2022-08-03T11:59:01.960Z,54.38
2022-08-03T12:00:32.627Z,53.50
2022-08-03T12:03:02.693Z,53.46
2022-08-03T12:05:51.827Z,54.54
2022-08-03T12:08:36.163Z,54.52
2022-08-03T12:11:07.812Z,53.85
2022-08-03T12:14:45.072Z,53.15
2022-08-03T12:16:36.526Z,52.05
2022-08-03T12:19:07.219Z,53.24
2022-08-03T12:21:34.524Z,52.63
2022-08-03T12:24:04.533Z,51.74
2022-08-03T12:26:59.317Z,51.94
2022-08-03T12:29:27.907Z,52.97
2022-08-03T12:31:55.978Z,53.63
2022-08-03T12:34:23.711Z,53.66
2022-08-03T12:36:52.703Z,51.68
2022-08-03T12:39:24.143Z,50.53
2022-08-03T12:41:53.808Z,50.28
2022-08-03T12:44:30.470Z,50.59
2022-08-03T12:47:01.505Z,51.21
2022-08-03T12:49:30.510Z,50.23
2022-08-03T12:52:01.744Z,49.42
2022-08-03T12:54:35.142Z,49.37
2022-08-03T12:57:03.317Z,49.89
2022-08-03T12:59:40.646Z,51.32
2022-08-03T13:02:23.590Z,50.70
2022-08-03T13:04:52.221Z,50.99
2022-08-03T13:07:20.306Z,51.53
2022-08-03T13:09:57.471Z,52.63
2022-08-03T13:12:26.563Z,52.48
2022-08-03T13:14:56.785Z,52.54
2022-08-03T13:17:24.464Z,52.77
2022-08-03T13:19:52.024Z,53.29
2022-08-03T13:22:27.758Z,52.97
2022-08-03T13:24:58.695Z,53.25
2022-08-03T13:28:05.339Z,53.76
2022-08-03T13:30:13.890Z,53.00
2022-08-03T13:32:48.510Z,51.86
2022-08-03T13:35:16.408Z,51.76
2022-08-03T13:37:44.147Z,50.92
2022-08-03T13:40:16.145Z,50.38
2022-08-03T13:42:44.585Z,50.55
2022-08-03T13:45:12.146Z,49.40
2022-08-03T13:47:39.413Z,48.52
2022-08-03T13:50:07.264Z,48.39
2022-08-03T13:52:35.471Z,48.87
2022-08-03T13:55:04.111Z,49.21
2022-08-03T13:58:04.378Z,50.40
2022-08-03T14:00:27.680Z,51.17
2022-08-03T14:03:13.173Z,52.43
2022-08-03T14:05:42.402Z,53.16
2022-08-03T14:08:10.263Z,53.12
2022-08-03T14:10:40.984Z,53.43
2022-08-03T14:13:08.964Z,53.48
2022-08-03T14:15:38.371Z,53.98
2022-08-03T14:18:15.397Z,54.39
2022-08-03T14:20:50.158Z,54.78
2022-08-03T14:23:21.630Z,55.45
2022-08-03T14:25:52.370Z,55.68
2022-08-03T14:28:22.918Z,55.42
2022-08-03T14:30:51.542Z,54.76
2022-08-03T14:33:18.825Z,54.13
2022-08-03T14:35:46.196Z,53.58
2022-08-03T14:38:13.749Z,53.66
2022-08-03T14:40:41.335Z,54.14
2022-08-03T14:43:08.659Z,54.74
2022-08-03T14:45:35.906Z,54.72
2022-08-03T14:50:32.949Z,55.12
2022-08-03T14:50:55.707Z,55.44
2022-08-03T14:53:23.080Z,55.29
2022-08-03T14:55:51.873Z,55.82
2022-08-03T14:58:23.405Z,56.23
2022-08-03T15:00:51.674Z,56.26
2022-08-03T15:03:26.204Z,55.57
2022-08-03T15:05:54.541Z,55.36
2022-08-03T15:08:22.964Z,55.01
2022-08-03T15:10:51.033Z,55.37
2022-08-03T15:13:18.431Z,55.16
2022-08-03T15:15:45.842Z,54.98
2022-08-03T15:18:13.299Z,54.93
2022-08-03T15:20:44.964Z,55.24
2022-08-03T15:23:14.700Z,55.64
2022-08-03T15:26:28.639Z,55.85
2022-08-03T15:28:31.191Z,56.04
2022-08-03T15:30:58.584Z,55.99
2022-08-03T15:33:25.896Z,56.49
2022-08-03T15:35:53.662Z,56.62
2022-08-03T15:38:25.785Z,57.13
2022-08-03T15:40:54.982Z,57.41
2022-08-03T15:43:23.377Z,57.60
2022-08-03T15:46:19.046Z,57.90
2022-08-03T15:48:38.759Z,58.14
2022-08-03T15:51:06.368Z,58.04
2022-08-03T15:53:34.024Z,57.98
2022-08-03T15:56:05.176Z,58.20
2022-08-03T15:59:04.664Z,58.33
2022-08-03T16:01:22.653Z,58.40
2022-08-03T16:03:50.062Z,58.72
2022-08-03T16:06:17.474Z,58.87
2022-08-03T16:08:56.957Z,59.05
2022-08-03T16:11:24.317Z,59.28
2022-08-03T16:14:13.691Z,59.32
2022-08-03T16:16:41.660Z,59.51
2022-08-03T16:19:09.010Z,59.64
2022-08-03T16:21:47.929Z,59.30
2022-08-03T16:24:17.445Z,59.71
2022-08-03T16:26:47.253Z,59.68
2022-08-03T16:29:22.385Z,59.97
2022-08-03T16:31:52.336Z,60.16
2022-08-03T16:34:20.580Z,60.16
2022-08-03T16:36:48.044Z,60.08
2022-08-03T16:39:15.522Z,60.14
2022-08-03T16:41:54.102Z,60.61
2022-08-03T16:44:30.188Z,60.64
2022-08-03T16:46:58.243Z,60.64
2022-08-03T16:49:54.781Z,60.86
2022-08-03T16:52:13.391Z,61.14
2022-08-03T16:54:40.970Z,60.83
2022-08-03T16:57:10.606Z,60.88
2022-08-03T16:59:39.421Z,61.20
2022-08-03T17:02:10.563Z,61.56
2022-08-03T17:04:40.084Z,61.87
2022-08-03T17:07:08.869Z,62.07
2022-08-03T17:09:38.286Z,62.52
2022-08-03T17:12:10.892Z,62.56
2022-08-03T17:14:38.512Z,62.55
2022-08-03T17:17:08.998Z,63.08
2022-08-03T17:19:47.149Z,61.96
2022-08-03T17:22:18.650Z,60.09
2022-08-03T17:24:47.995Z,59.78
2022-08-03T17:28:42.190Z,59.99
2022-08-03T17:30:09.897Z,60.39
2022-08-03T17:32:42.331Z,61.03
2022-08-03T17:35:10.639Z,61.49
2022-08-03T17:37:57.677Z,61.94
2022-08-03T17:40:25.582Z,62.60
2022-08-03T17:42:53.305Z,62.96
2022-08-03T17:45:20.767Z,63.16
2022-08-03T17:47:57.475Z,63.54
2022-08-03T17:50:32.192Z,63.79
2022-08-03T17:53:07.655Z,64.21
2022-08-03T17:55:56.821Z,64.56
2022-08-03T17:59:02.361Z,62.54
2022-08-03T18:02:22.322Z,60.93
2022-08-03T18:05:16.092Z,61.12
2022-08-03T18:08:01.644Z,61.49
2022-08-03T18:10:35.583Z,62.11
2022-08-03T18:13:19.828Z,62.65
2022-08-03T18:15:49.738Z,63.43
2022-08-03T18:18:32.513Z,63.68
2022-08-03T18:21:06.743Z,64.18
2022-08-03T18:23:37.734Z,64.78
2022-08-03T18:26:11.839Z,65.15
2022-08-03T18:28:39.900Z,65.32
2022-08-03T18:31:10.123Z,64.49
2022-08-03T18:34:16.703Z,62.45
2022-08-03T18:36:30.506Z,62.16
2022-08-03T18:39:03.231Z,62.16
2022-08-03T18:41:34.737Z,62.87
2022-08-03T18:44:08.661Z,63.47
2022-08-03T18:47:16.879Z,64.43
2022-08-03T18:50:20.195Z,65.16
2022-08-03T18:52:53.782Z,65.63
2022-08-03T18:55:33.655Z,66.46
2022-08-03T18:58:24.983Z,67.09
2022-08-03T19:00:58.655Z,65.66
2022-08-03T19:03:43.376Z,64.40
2022-08-03T19:06:19.411Z,64.23
2022-08-03T19:08:50.102Z,65.03
2022-08-03T19:11:27.868Z,66.05
2022-08-03T19:13:57.016Z,66.78
2022-08-03T19:16:48.007Z,67.52
2022-08-03T19:19:17.627Z,68.32
2022-08-03T19:21:46.420Z,68.85
2022-08-03T19:24:16.732Z,68.13
2022-08-03T19:26:48.587Z,66.58
2022-08-03T19:29:21.041Z,66.49
2022-08-03T19:31:58.872Z,66.91
2022-08-03T19:34:26.625Z,67.61
2022-08-03T19:36:55.312Z,68.27
2022-08-03T19:39:27.803Z,68.36
2022-08-03T19:41:56.664Z,69.07
2022-08-03T19:44:26.524Z,69.45
2022-08-03T19:47:16.912Z,68.21
2022-08-03T19:50:05.145Z,66.42
2022-08-03T19:52:35.769Z,66.44
2022-08-03T19:55:07.612Z,66.82
2022-08-03T19:57:40.515Z,67.20
2022-08-03T20:00:12.679Z,67.98
2022-08-03T20:02:43.526Z,68.41
2022-08-03T20:05:15.475Z,69.07
2022-08-03T20:07:48.240Z,68.14
2022-08-03T20:10:17.150Z,66.70
2022-08-03T20:12:45.795Z,66.59
2022-08-03T20:15:13.459Z,66.98
2022-08-03T20:17:57.125Z,67.69
2022-08-03T20:20:31.503Z,68.79
2022-08-03T20:23:00.657Z,69.44
2022-08-03T20:25:38.350Z,70.24
2022-08-03T20:28:15.402Z,69.31
2022-08-03T20:30:47.208Z,67.93
2022-08-03T20:33:18.210Z,68.01
2022-08-03T20:35:49.200Z,68.35
2022-08-03T20:38:20.137Z,68.83
2022-08-03T20:40:54.856Z,69.63
2022-08-03T20:43:22.284Z,70.35
2022-08-03T20:45:59.799Z,71.08
2022-08-03T20:48:39.939Z,69.42
2022-08-03T20:51:19.692Z,67.74
2022-08-03T20:53:59.840Z,67.56
2022-08-03T20:56:35.895Z,67.89
2022-08-03T20:59:05.622Z,68.68
2022-08-03T21:01:36.514Z,70.08
2022-08-03T21:04:22.339Z,70.89
2022-08-03T21:06:56.729Z,71.08
2022-08-03T21:09:40.117Z,70.28
2022-08-03T21:12:15.254Z,68.64
2022-08-03T21:14:53.533Z,68.75
2022-08-03T21:17:39.183Z,69.55
2022-08-03T21:20:09.243Z,70.15
2022-08-03T21:22:38.037Z,70.92
2022-08-03T21:25:08.617Z,71.41
2022-08-03T21:27:36.614Z,70.79
2022-08-03T21:30:08.944Z,69.34
2022-08-03T21:32:40.465Z,69.32
2022-08-03T21:35:13.275Z,69.93
2022-08-03T21:37:41.230Z,70.39
2022-08-03T21:40:11.091Z,71.03
2022-08-03T21:42:39.856Z,71.54
2022-08-03T21:45:09.698Z,72.92
2022-08-03T21:47:39.828Z,71.66
2022-08-03T21:50:10.032Z,70.10
2022-08-03T21:52:46.002Z,70.03
2022-08-03T21:55:18.512Z,70.46
2022-08-03T21:57:52.200Z,71.40
2022-08-03T22:00:20.833Z,72.40
2022-08-03T22:02:55.539Z,73.52
2022-08-03T22:05:29.106Z,72.59
2022-08-03T22:08:14.107Z,71.21
2022-08-03T22:10:45.249Z,71.46
2022-08-03T22:13:20.597Z,72.07
2022-08-03T22:16:04.507Z,72.94
2022-08-03T22:18:31.749Z,73.91
2022-08-03T22:20:59.032Z,74.77
2022-08-03T22:23:26.450Z,73.70
2022-08-03T22:25:53.708Z,72.30
2022-08-03T22:28:21.074Z,72.24
2022-08-03T22:33:35.019Z,73.68
2022-08-03T22:36:02.277Z,74.73
2022-08-03T22:38:30.055Z,75.69
2022-08-03T22:40:57.389Z,74.73
2022-08-03T22:43:25.774Z,73.02
2022-08-03T22:46:09.922Z,72.78
2022-08-03T22:48:41.221Z,73.96
2022-08-03T22:51:09.261Z,74.76
2022-08-03T22:53:36.733Z,76.03
2022-08-03T22:56:04.459Z,76.95
2022-08-03T22:58:34.068Z,75.44
2022-08-03T23:01:07.357Z,73.70
2022-08-03T23:03:59.264Z,73.41
2022-08-03T23:06:23.682Z,74.01
2022-08-03T23:08:50.926Z,75.58
2022-08-03T23:11:18.692Z,76.17
2022-08-03T23:13:47.706Z,75.37
2022-08-03T23:16:15.045Z,73.55
2022-08-03T23:18:56.011Z,73.45
2022-08-03T23:21:53.749Z,73.94
2022-08-03T23:24:24.580Z,75.10
2022-08-03T23:26:57.704Z,75.81
2022-08-03T23:29:25.101Z,76.47
2022-08-03T23:31:52.619Z,75.35
2022-08-03T23:34:38.627Z,73.43
2022-08-03T23:37:06.073Z,72.93
2022-08-03T23:39:34.917Z,73.11
2022-08-03T23:42:03.349Z,73.98
2022-08-03T23:44:30.903Z,74.60
2022-08-03T23:46:58.274Z,75.18
2022-08-03T23:49:25.605Z,74.88
2022-08-03T23:52:29.618Z,72.66
2022-08-03T23:55:18.792Z,72.34
2022-08-03T23:57:54.000Z,73.95
